createdAt,value
2019-01-20T00:01:46.186Z,19.62
2019-01-20T00:04:14.482Z,17.70
2019-01-20T00:06:42.681Z,19.48
2019-01-20T00:09:10.905Z,20.75
2019-01-20T00:11:39.101Z,21.02
2019-01-20T00:14:07.393Z,19.42
2019-01-20T00:16:35.751Z,20.25
2019-01-20T00:19:04.278Z,19.67
2019-01-20T00:21:32.482Z,18.87
2019-01-20T00:24:00.769Z,20.75
2019-01-20T00:26:28.975Z,20.72
2019-01-20T00:28:57.274Z,19.73
2019-01-20T00:31:25.546Z,20.60
2019-01-20T00:33:53.785Z,20.45
2019-01-20T00:36:22.053Z,18.65
2019-01-20T00:38:50.278Z,18.50
2019-01-20T00:41:24.007Z,18.95
2019-01-20T00:43:48.485Z,19.60
2019-01-20T00:46:16.681Z,19.07
2019-01-20T00:48:44.980Z,19.73
2019-01-20T00:51:13.250Z,19.60
2019-01-20T00:53:41.466Z,18.07
2019-01-20T00:56:09.735Z,18.50
2019-01-20T00:58:38.031Z,20.50
2019-01-20T01:01:06.303Z,17.55
2019-01-20T01:03:34.606Z,19.32
2019-01-20T01:06:02.950Z,19.25
2019-01-20T01:08:31.255Z,20.35
2019-01-20T01:10:59.534Z,18.20
2019-01-20T01:13:27.902Z,18.95
2019-01-20T01:15:56.178Z,19.85
2019-01-20T01:18:24.397Z,17.57
2019-01-20T01:20:52.602Z,17.92
2019-01-20T01:23:20.921Z,18.82
2019-01-20T01:25:49.118Z,19.23
2019-01-20T01:28:17.339Z,19.42
2019-01-20T01:30:45.541Z,19.55
2019-01-20T01:33:13.766Z,19.57
2019-01-20T01:35:41.966Z,19.32
2019-01-20T01:38:10.190Z,16.67
2019-01-20T01:40:38.465Z,17.65
2019-01-20T01:43:06.733Z,17.62
2019-01-20T01:45:34.953Z,16.93
2019-01-20T01:48:03.149Z,18.40
2019-01-20T01:50:31.371Z,18.05
2019-01-20T01:52:59.564Z,17.40
2019-01-20T01:55:27.793Z,19.67
2019-01-20T01:57:56.065Z,18.50
2019-01-20T02:00:24.353Z,17.92
2019-01-20T02:02:52.557Z,18.80
2019-01-20T02:05:20.785Z,18.65
2019-01-20T02:07:49.049Z,18.62
2019-01-20T02:10:18.042Z,19.98
2019-01-20T02:12:46.386Z,18.65
2019-01-20T02:15:15.873Z,17.42
2019-01-20T02:17:44.076Z,19.12
2019-01-20T02:20:13.729Z,18.02
2019-01-20T02:22:41.929Z,17.70
2019-01-20T02:25:10.327Z,18.50
2019-01-20T02:27:38.601Z,18.60
2019-01-20T02:30:14.113Z,19.25
2019-01-20T02:32:42.309Z,17.48
2019-01-20T02:35:10.537Z,18.20
2019-01-20T02:37:38.801Z,16.48
2019-01-20T02:40:08.634Z,16.65
2019-01-20T02:42:36.835Z,17.23
2019-01-20T02:45:06.299Z,19.48
2019-01-20T02:47:34.577Z,17.02
2019-01-20T02:50:02.809Z,18.50
2019-01-20T02:52:31.070Z,18.15
2019-01-20T02:54:59.377Z,17.50
2019-01-20T02:57:27.651Z,17.42
2019-01-20T02:59:55.945Z,18.35
2019-01-20T03:02:24.145Z,16.25
2019-01-20T03:04:52.441Z,16.20
2019-01-20T03:07:20.653Z,18.80
2019-01-20T03:09:48.933Z,17.10
2019-01-20T03:12:17.132Z,18.50
2019-01-20T03:14:45.432Z,16.93
2019-01-20T03:17:13.702Z,17.98
2019-01-20T03:19:41.997Z,16.60
2019-01-20T03:22:10.189Z,16.50
2019-01-20T03:24:38.418Z,18.27
2019-01-20T03:27:06.687Z,18.02
2019-01-20T03:29:34.982Z,18.87
2019-01-20T03:32:03.238Z,17.30
2019-01-20T03:34:31.459Z,16.85
2019-01-20T03:36:59.753Z,16.52
2019-01-20T03:39:28.035Z,17.57
2019-01-20T03:41:56.321Z,16.25
2019-01-20T03:44:24.522Z,17.10
2019-01-20T03:46:52.750Z,17.50
2019-01-20T03:49:21.009Z,19.17
2019-01-20T03:51:49.225Z,16.87
2019-01-20T03:54:17.422Z,17.62
2019-01-20T03:56:45.649Z,16.80
2019-01-20T03:59:13.848Z,17.92
2019-01-20T04:01:42.069Z,18.02
2019-01-20T04:04:10.265Z,17.40
2019-01-20T04:06:38.483Z,18.60
2019-01-20T04:09:07.402Z,17.75
2019-01-20T04:11:35.811Z,16.90
2019-01-20T04:14:04.206Z,17.55
2019-01-20T04:16:32.420Z,17.48
2019-01-20T04:19:00.625Z,16.80
2019-01-20T04:21:28.930Z,16.97
2019-01-20T04:23:57.197Z,17.27
2019-01-20T04:26:25.414Z,18.75
2019-01-20T04:28:53.620Z,16.80
2019-01-20T04:31:21.910Z,18.07
2019-01-20T04:33:50.105Z,19.35
2019-01-20T04:36:18.329Z,18.67
2019-01-20T04:38:46.589Z,17.50
2019-01-20T04:41:14.809Z,17.60
2019-01-20T04:43:43.010Z,16.65
2019-01-20T04:46:11.316Z,18.52
2019-01-20T04:48:39.655Z,17.65
2019-01-20T04:51:08.121Z,18.87
2019-01-20T04:53:36.994Z,18.05
2019-01-20T04:56:05.354Z,18.77
2019-01-20T04:58:33.617Z,17.57
2019-01-20T05:01:01.844Z,18.85
2019-01-20T05:03:30.117Z,18.92
2019-01-20T05:05:58.414Z,18.73
2019-01-20T05:08:26.681Z,19.02
2019-01-20T05:10:54.901Z,19.07
2019-01-20T05:13:23.097Z,19.00
2019-01-20T05:15:51.302Z,16.62
2019-01-20T05:18:19.597Z,18.37
2019-01-20T05:20:47.798Z,18.07
2019-01-20T05:23:16.030Z,17.77
2019-01-20T05:25:44.298Z,20.02
2019-01-20T05:28:12.601Z,17.85
2019-01-20T05:30:40.810Z,17.50
2019-01-20T05:33:09.105Z,18.77
2019-01-20T05:35:37.311Z,17.42
2019-01-20T05:38:05.603Z,19.87
2019-01-20T05:40:33.890Z,20.92
2019-01-20T05:43:02.201Z,19.98
2019-01-20T05:45:30.475Z,21.17
2019-01-20T05:47:58.771Z,20.08
2019-01-20T05:50:26.977Z,20.92
2019-01-20T05:52:55.198Z,22.37
2019-01-20T05:55:23.474Z,22.03
2019-01-20T05:57:51.771Z,20.85
2019-01-20T06:00:21.118Z,19.93
2019-01-20T06:02:49.421Z,22.32
2019-01-20T06:05:17.698Z,21.02
2019-01-20T06:07:45.926Z,19.17
2019-01-20T06:10:14.194Z,22.17
2019-01-20T06:12:42.498Z,23.38
2019-01-20T06:15:15.312Z,21.75
2019-01-20T06:17:43.661Z,21.53
2019-01-20T06:20:11.939Z,21.97
2019-01-20T06:22:40.238Z,22.02
2019-01-20T06:25:08.784Z,24.52
2019-01-20T06:27:37.088Z,22.67
2019-01-20T06:30:06.905Z,21.87
2019-01-20T06:32:35.202Z,21.90
2019-01-20T06:35:03.662Z,21.90
2019-01-20T06:37:31.957Z,20.02
2019-01-20T06:40:00.234Z,20.77
2019-01-20T06:42:28.525Z,20.88
2019-01-20T06:44:56.726Z,21.80
2019-01-20T06:47:25.084Z,22.13
2019-01-20T06:49:53.354Z,21.47
2019-01-20T06:52:21.578Z,21.73
2019-01-20T06:54:49.866Z,21.70
2019-01-20T06:57:18.161Z,22.62
2019-01-20T06:59:46.358Z,21.48
2019-01-20T07:02:14.586Z,20.33
2019-01-20T07:04:42.865Z,20.90
2019-01-20T07:07:11.065Z,20.25
2019-01-20T07:09:39.298Z,18.82
2019-01-20T07:12:07.570Z,23.33
2019-01-20T07:14:35.862Z,23.10
2019-01-20T07:17:04.198Z,21.37
2019-01-20T07:19:32.427Z,22.25
2019-01-20T07:22:00.706Z,20.02
2019-01-20T07:24:29.017Z,20.45
2019-01-20T07:26:57.285Z,20.55
2019-01-20T07:29:25.583Z,19.73
2019-01-20T07:31:53.862Z,21.35
2019-01-20T07:34:22.166Z,21.30
2019-01-20T07:36:50.430Z,20.60
2019-01-20T07:39:18.733Z,20.60
2019-01-20T07:41:46.931Z,20.47
2019-01-20T07:44:15.151Z,21.27
2019-01-20T07:46:43.430Z,20.47
2019-01-20T07:49:11.722Z,21.73
2019-01-20T07:51:39.918Z,20.07
2019-01-20T07:54:08.142Z,20.10
2019-01-20T07:56:36.415Z,20.57
2019-01-20T07:59:04.709Z,20.65
2019-01-20T08:01:32.913Z,21.48
2019-01-20T08:04:01.224Z,21.77
2019-01-20T08:06:29.494Z,20.30
2019-01-20T08:08:57.803Z,21.30
2019-01-20T08:11:26.066Z,21.03
2019-01-20T08:13:54.282Z,20.70
2019-01-20T08:16:22.477Z,20.03
2019-01-20T08:18:50.779Z,22.43
2019-01-20T08:21:19.041Z,19.97
2019-01-20T08:23:47.259Z,20.93
2019-01-20T08:26:15.529Z,20.83
2019-01-20T08:28:43.826Z,20.80
2019-01-20T08:31:12.118Z,22.13
2019-01-20T08:33:40.414Z,22.07
2019-01-20T08:36:08.687Z,20.77
2019-01-20T08:38:36.958Z,22.43
2019-01-20T08:41:05.246Z,19.43
2019-01-20T08:43:33.447Z,19.13
2019-01-20T08:46:05.994Z,20.40
2019-01-20T08:48:34.261Z,21.77
2019-01-20T08:51:02.549Z,22.37
2019-01-20T08:53:30.821Z,21.37
2019-01-20T08:55:59.122Z,19.20
2019-01-20T08:58:27.394Z,21.77
2019-01-20T09:00:55.699Z,21.13
2019-01-20T09:03:23.962Z,21.27
2019-01-20T09:05:52.179Z,19.50
2019-01-20T09:08:20.374Z,21.13
2019-01-20T09:10:48.589Z,19.20
2019-01-20T09:13:16.797Z,21.97
2019-01-20T09:15:45.089Z,20.80
2019-01-20T09:18:13.355Z,21.13
2019-01-20T09:20:41.645Z,21.87
2019-01-20T09:23:09.846Z,20.20
2019-01-20T09:25:38.062Z,20.20
2019-01-20T09:28:06.330Z,20.00
2019-01-20T09:30:34.719Z,21.13
2019-01-20T09:33:03.051Z,22.60
2019-01-20T09:35:31.347Z,23.10
2019-01-20T09:37:59.627Z,22.13
2019-01-20T09:40:27.923Z,23.63
2019-01-20T09:42:56.200Z,21.13
2019-01-20T09:45:29.025Z,20.77
2019-01-20T09:47:57.218Z,22.67
2019-01-20T09:50:25.443Z,21.90
2019-01-20T09:52:53.941Z,22.20
2019-01-20T09:55:22.243Z,21.50
2019-01-20T09:57:50.510Z,21.97
2019-01-20T10:00:20.007Z,22.67
2019-01-20T10:02:49.133Z,21.13
2019-01-20T10:05:17.344Z,21.87
2019-01-20T10:07:45.617Z,20.30
2019-01-20T10:10:15.379Z,20.97
2019-01-20T10:12:43.713Z,22.60
2019-01-20T10:15:13.210Z,22.30
2019-01-20T10:17:41.494Z,22.97
2019-01-20T10:20:11.324Z,23.40
2019-01-20T10:22:39.674Z,23.60
2019-01-20T10:25:14.900Z,22.60
2019-01-20T10:27:37.946Z,23.37
2019-01-20T10:30:07.682Z,22.40
2019-01-20T10:32:35.919Z,22.13
2019-01-20T10:35:05.452Z,22.57
2019-01-20T10:37:34.394Z,22.63
2019-01-20T10:40:02.662Z,23.30
2019-01-20T10:42:30.882Z,24.07
2019-01-20T10:44:59.150Z,21.53
2019-01-20T10:47:27.365Z,21.80
2019-01-20T10:49:55.574Z,23.97
2019-01-20T10:52:24.781Z,22.27
2019-01-20T10:54:53.045Z,22.03
2019-01-20T10:57:21.341Z,23.60
2019-01-20T10:59:49.673Z,22.93
2019-01-20T11:02:17.962Z,24.27
2019-01-20T11:04:46.229Z,24.17
2019-01-20T11:07:14.447Z,23.87
2019-01-20T11:09:42.719Z,23.70
2019-01-20T11:12:11.016Z,22.07
2019-01-20T11:14:39.282Z,22.03
2019-01-20T11:17:07.573Z,25.30
2019-01-20T11:19:36.874Z,25.40
2019-01-20T11:22:05.090Z,23.30
2019-01-20T11:24:33.362Z,24.60
2019-01-20T11:27:01.956Z,24.73
2019-01-20T11:29:30.217Z,25.13
2019-01-20T11:31:58.410Z,23.27
2019-01-20T11:34:26.623Z,23.73
2019-01-20T11:36:54.898Z,25.20
2019-01-20T11:39:23.196Z,23.90
2019-01-20T11:41:51.473Z,25.43
2019-01-20T11:44:19.700Z,23.60
2019-01-20T11:46:47.972Z,24.97
2019-01-20T11:49:16.257Z,22.50
2019-01-20T11:51:44.453Z,24.93
2019-01-20T11:54:12.680Z,22.33
2019-01-20T11:56:40.957Z,23.50
2019-01-20T11:59:09.235Z,25.13
2019-01-20T12:01:37.536Z,23.97
2019-01-20T12:04:05.877Z,23.17
2019-01-20T12:06:34.162Z,23.67
2019-01-20T12:09:02.356Z,24.70
2019-01-20T12:11:30.662Z,23.17
2019-01-20T12:13:58.861Z,25.03
2019-01-20T12:16:27.282Z,24.30
2019-01-20T12:18:55.582Z,25.70
2019-01-20T12:21:23.928Z,25.60
2019-01-20T12:23:52.189Z,26.50
2019-01-20T12:26:20.415Z,25.67
2019-01-20T12:28:48.694Z,27.17
2019-01-20T12:31:17.022Z,27.30
2019-01-20T12:33:45.314Z,25.73
2019-01-20T12:36:13.584Z,25.00
2019-01-20T12:38:41.902Z,24.83
2019-01-20T12:41:10.146Z,25.23
2019-01-20T12:43:38.440Z,26.30
2019-01-20T12:46:06.705Z,26.17
2019-01-20T12:48:34.934Z,24.27
2019-01-20T12:51:03.270Z,23.60
2019-01-20T12:53:31.561Z,26.73
2019-01-20T12:55:59.754Z,25.60
2019-01-20T12:58:28.115Z,26.87
2019-01-20T13:00:56.383Z,25.43
2019-01-20T13:03:24.685Z,25.10
2019-01-20T13:05:52.970Z,25.80
2019-01-20T13:08:21.241Z,25.77
2019-01-20T13:10:49.526Z,24.63
2019-01-20T13:13:17.793Z,27.03
2019-01-20T13:15:46.085Z,23.90
2019-01-20T13:18:14.282Z,24.83
2019-01-20T13:20:42.587Z,25.30
2019-01-20T13:23:10.856Z,26.97
2019-01-20T13:25:39.148Z,25.67
2019-01-20T13:28:07.414Z,25.57
2019-01-20T13:30:35.634Z,27.07
2019-01-20T13:33:03.986Z,24.60
2019-01-20T13:35:32.278Z,25.77
2019-01-20T13:38:01.806Z,26.20
2019-01-20T13:40:31.570Z,24.90
2019-01-20T13:42:59.838Z,25.30
2019-01-20T13:45:28.130Z,24.03
2019-01-20T13:47:56.400Z,34.93
2019-01-20T13:50:24.820Z,26.30
2019-01-20T13:52:53.154Z,26.03
2019-01-20T13:55:21.423Z,26.73
2019-01-20T13:57:49.729Z,25.27
2019-01-20T14:00:19.094Z,24.73
2019-01-20T14:02:47.510Z,25.67
2019-01-20T14:05:15.730Z,24.27
2019-01-20T14:07:44.026Z,23.20
2019-01-20T14:10:13.876Z,24.67
2019-01-20T14:12:42.161Z,25.90
2019-01-20T14:15:11.532Z,24.80
2019-01-20T14:17:39.815Z,25.20
2019-01-20T14:20:12.526Z,23.80
2019-01-20T14:22:40.738Z,23.90
2019-01-20T14:25:16.409Z,24.07
2019-01-20T14:27:44.698Z,24.37
2019-01-20T14:30:19.982Z,23.97
2019-01-20T14:32:48.513Z,22.23
2019-01-20T14:35:16.798Z,25.43
2019-01-20T14:37:45.092Z,24.00
2019-01-20T14:40:14.894Z,23.63
2019-01-20T14:42:43.118Z,25.07
2019-01-20T14:45:12.857Z,23.00
2019-01-20T14:47:41.142Z,22.50
2019-01-20T14:50:16.521Z,23.07
2019-01-20T14:52:44.814Z,22.10
2019-01-20T14:55:13.141Z,21.90
2019-01-20T14:57:41.336Z,22.43
2019-01-20T15:00:11.157Z,22.10
2019-01-20T15:02:39.423Z,20.43
2019-01-20T15:05:07.704Z,21.87
2019-01-20T15:07:35.983Z,19.63
2019-01-20T15:10:08.761Z,24.97
2019-01-20T15:12:36.950Z,21.33
2019-01-20T15:15:08.969Z,19.53
2019-01-20T15:17:36.738Z,19.83
2019-01-20T15:20:06.570Z,20.73
2019-01-20T15:22:34.837Z,23.50
2019-01-20T15:25:03.509Z,23.40
2019-01-20T15:27:31.699Z,20.40
2019-01-20T15:29:59.986Z,21.87
2019-01-20T15:32:28.353Z,20.57
2019-01-20T15:34:56.685Z,22.20
2019-01-20T15:37:24.962Z,21.57
2019-01-20T15:39:53.182Z,20.90
2019-01-20T15:42:21.368Z,20.60
2019-01-20T15:44:49.593Z,23.27
2019-01-20T15:47:17.789Z,23.13
2019-01-20T15:49:46.018Z,33.40
2019-01-20T15:52:14.217Z,23.43
2019-01-20T15:54:42.484Z,26.60
2019-01-20T15:57:10.769Z,24.30
2019-01-20T15:59:38.986Z,24.47
2019-01-20T16:02:07.344Z,25.20
2019-01-20T16:04:35.613Z,24.23
2019-01-20T16:07:03.973Z,23.40
2019-01-20T16:09:32.183Z,23.57
2019-01-20T16:12:00.489Z,24.77
2019-01-20T16:14:28.760Z,22.73
2019-01-20T16:16:57.048Z,23.90
2019-01-20T16:19:25.317Z,23.00
2019-01-20T16:21:53.812Z,25.60
2019-01-20T16:24:22.083Z,24.37
2019-01-20T16:26:50.485Z,24.23
2019-01-20T16:29:18.705Z,23.20
2019-01-20T16:31:46.976Z,23.50
2019-01-20T16:34:15.274Z,23.10
2019-01-20T16:36:43.547Z,22.50
2019-01-20T16:39:11.846Z,25.20
2019-01-20T16:41:40.109Z,24.20
2019-01-20T16:44:08.337Z,23.03
2019-01-20T16:46:36.604Z,26.50
2019-01-20T16:49:04.862Z,23.10
2019-01-20T16:51:33.078Z,23.87
2019-01-20T16:54:01.280Z,22.57
2019-01-20T16:56:29.578Z,24.80
2019-01-20T16:58:57.851Z,23.50
2019-01-20T17:01:26.202Z,22.83
2019-01-20T17:03:54.397Z,24.17
2019-01-20T17:06:22.623Z,22.30
2019-01-20T17:08:50.892Z,23.97
2019-01-20T17:11:19.185Z,24.67
2019-01-20T17:13:47.462Z,23.77
2019-01-20T17:16:15.758Z,24.80
2019-01-20T17:18:44.038Z,24.83
2019-01-20T17:21:12.393Z,24.03
2019-01-20T17:23:41.798Z,23.53
2019-01-20T17:26:10.018Z,22.50
2019-01-20T17:28:38.210Z,23.63
2019-01-20T17:31:06.429Z,26.97
2019-01-20T17:33:34.646Z,25.50
2019-01-20T17:36:02.941Z,25.43
2019-01-20T17:38:31.151Z,23.80
2019-01-20T17:40:59.446Z,23.73
2019-01-20T17:43:27.654Z,23.70
2019-01-20T17:45:55.941Z,25.80
2019-01-20T17:48:24.137Z,25.43
2019-01-20T17:50:52.359Z,26.40
2019-01-20T17:53:20.626Z,27.40
2019-01-20T17:55:48.921Z,22.37
2019-01-20T17:58:18.360Z,27.90
2019-01-20T18:00:51.015Z,28.40
2019-01-20T18:03:19.287Z,29.47
2019-01-20T18:05:47.649Z,26.07
2019-01-20T18:08:15.847Z,27.80
2019-01-20T18:10:44.142Z,31.60
2019-01-20T18:13:12.406Z,37.57
2019-01-20T18:15:40.694Z,34.37
2019-01-20T18:18:08.894Z,41.40
2019-01-20T18:20:37.097Z,32.23
2019-01-20T18:23:05.458Z,32.27
2019-01-20T18:25:33.732Z,27.00
2019-01-20T18:28:02.028Z,26.60
2019-01-20T18:30:30.774Z,25.93
2019-01-20T18:32:59.073Z,25.57
2019-01-20T18:35:27.922Z,31.67
2019-01-20T18:37:56.290Z,30.43
2019-01-20T18:40:25.167Z,29.57
2019-01-20T18:42:53.532Z,26.50
2019-01-20T18:45:23.181Z,26.77
2019-01-20T18:47:51.465Z,26.53
2019-01-20T18:50:20.834Z,27.17
2019-01-20T18:52:49.130Z,26.77
2019-01-20T18:55:17.570Z,27.20
2019-01-20T18:57:45.940Z,28.60
2019-01-20T19:00:15.745Z,28.80
2019-01-20T19:02:44.041Z,29.80
2019-01-20T19:05:13.713Z,28.90
2019-01-20T19:07:42.026Z,26.30
2019-01-20T19:10:11.803Z,25.70
2019-01-20T19:12:40.097Z,29.90
2019-01-20T19:15:14.260Z,37.80
2019-01-20T19:17:46.608Z,32.10
2019-01-20T19:20:18.692Z,28.40
2019-01-20T19:22:47.551Z,35.20
2019-01-20T19:25:15.897Z,28.73
2019-01-20T19:27:44.117Z,30.90
2019-01-20T19:30:13.852Z,26.10
2019-01-20T19:32:42.145Z,27.40
2019-01-20T19:35:10.420Z,29.10
2019-01-20T19:37:38.782Z,27.40
2019-01-20T19:40:08.734Z,28.23
2019-01-20T19:42:36.949Z,27.50
2019-01-20T19:45:06.326Z,28.70
2019-01-20T19:47:34.625Z,28.17
2019-01-20T19:50:02.826Z,27.13
2019-01-20T19:52:31.119Z,26.27
2019-01-20T19:54:59.313Z,25.60
2019-01-20T19:57:27.529Z,27.20
2019-01-20T19:59:55.731Z,27.37
2019-01-20T20:02:24.029Z,24.97
2019-01-20T20:04:52.296Z,25.70
2019-01-20T20:07:20.590Z,28.60
2019-01-20T20:09:48.796Z,28.20
2019-01-20T20:12:20.489Z,29.40
2019-01-20T20:14:48.826Z,28.10
2019-01-20T20:17:17.042Z,27.70
2019-01-20T20:19:45.314Z,28.93
2019-01-20T20:22:13.510Z,28.17
2019-01-20T20:24:41.725Z,29.20
2019-01-20T20:27:09.929Z,26.57
2019-01-20T20:29:38.416Z,30.90
2019-01-20T20:32:06.690Z,29.30
2019-01-20T20:34:34.982Z,28.50
2019-01-20T20:37:03.189Z,27.53
2019-01-20T20:39:32.047Z,29.57
2019-01-20T20:42:00.238Z,27.67
2019-01-20T20:44:28.453Z,28.17
2019-01-20T20:46:56.646Z,27.30
2019-01-20T20:49:24.942Z,27.83
2019-01-20T20:51:53.142Z,25.83
2019-01-20T20:54:21.434Z,26.77
2019-01-20T20:56:49.703Z,28.23
2019-01-20T20:59:18.008Z,26.90
2019-01-20T21:01:46.261Z,27.90
2019-01-20T21:04:14.486Z,27.30
2019-01-20T21:06:42.749Z,26.53
2019-01-20T21:09:11.066Z,25.43
2019-01-20T21:11:39.258Z,26.67
2019-01-20T21:14:07.474Z,27.50
2019-01-20T21:16:37.983Z,27.93
2019-01-20T21:19:05.721Z,26.87
2019-01-20T21:21:33.994Z,28.40
2019-01-20T21:24:02.297Z,29.60
2019-01-20T21:26:30.565Z,27.63
2019-01-20T21:28:58.858Z,26.60
2019-01-20T21:31:27.054Z,26.93
2019-01-20T21:33:55.295Z,26.07
2019-01-20T21:36:23.557Z,28.37
2019-01-20T21:38:51.784Z,28.30
2019-01-20T21:41:19.982Z,26.87
2019-01-20T21:43:48.206Z,25.87
2019-01-20T21:46:16.473Z,27.20
2019-01-20T21:48:46.356Z,27.67
2019-01-20T21:51:14.666Z,28.07
2019-01-20T21:53:42.882Z,26.87
2019-01-20T21:56:11.083Z,24.57
2019-01-20T21:58:39.386Z,27.30
2019-01-20T22:01:07.650Z,27.33
2019-01-20T22:03:35.946Z,26.20
2019-01-20T22:06:04.214Z,28.07
2019-01-20T22:08:32.416Z,25.73
2019-01-20T22:11:00.710Z,27.13
2019-01-20T22:13:28.909Z,26.03
2019-01-20T22:15:57.137Z,24.50
2019-01-20T22:18:25.401Z,27.13
2019-01-20T22:20:53.617Z,25.87
2019-01-20T22:23:23.690Z,27.03
2019-01-20T22:25:51.978Z,27.63
2019-01-20T22:28:20.177Z,24.03
2019-01-20T22:30:48.471Z,28.27
2019-01-20T22:33:16.741Z,25.77
2019-01-20T22:35:45.044Z,26.47
2019-01-20T22:38:13.318Z,29.23
2019-01-20T22:40:41.606Z,24.40
2019-01-20T22:43:09.810Z,26.63
2019-01-20T22:45:38.098Z,26.53
2019-01-20T22:48:06.294Z,25.97
2019-01-20T22:50:34.583Z,25.40
2019-01-20T22:53:02.855Z,27.30
2019-01-20T22:55:31.149Z,26.10
2019-01-20T22:57:59.426Z,24.97
2019-01-20T23:00:39.438Z,25.43
2019-01-20T23:03:07.711Z,24.13
2019-01-20T23:05:36.006Z,28.03
2019-01-20T23:08:04.345Z,26.20
2019-01-20T23:10:32.638Z,24.90
2019-01-20T23:13:00.868Z,25.07
2019-01-20T23:15:29.147Z,26.50
2019-01-20T23:17:57.512Z,27.40
2019-01-20T23:20:25.822Z,26.73
2019-01-20T23:22:54.102Z,27.47
2019-01-20T23:25:22.395Z,26.33
2019-01-20T23:27:50.725Z,25.07
2019-01-20T23:30:19.027Z,26.00
2019-01-20T23:32:47.294Z,26.80
2019-01-20T23:35:15.510Z,24.57
2019-01-20T23:37:43.773Z,26.70
2019-01-20T23:40:15.778Z,25.23
2019-01-20T23:42:43.969Z,26.43
2019-01-20T23:45:12.629Z,25.40
2019-01-20T23:47:40.835Z,24.20
2019-01-20T23:50:10.662Z,25.13
2019-01-20T23:52:38.934Z,24.73
2019-01-20T23:55:08.110Z,26.43
2019-01-20T23:57:36.334Z,25.23
